Time;durP1;ratioP1;P1;durP2;ratioP2;P2;SDS_P1;SDS_P2;PMS_P1;PMS_P2;Temp;Humidity;BMP_temperature;BMP_pressure;BME280_temperature;BME280_humidity;BME280_pressure;Samples;Min_cycle;Max_cycle;Signal;HPM_P1;HPM_P2
2022/07/08 00:01:45;;;;;;;8.17;4.50;;;15.30;99.90;;;;;;5089647;28;20188;-53
2022/07/08 00:04:10;;;;;;;5.87;4.37;;;15.30;99.90;;;;;;5090245;28;20204;-52
2022/07/08 00:06:36;;;;;;;7.00;4.00;;;15.30;99.90;;;;;;5089326;28;20591;-53
2022/07/08 00:09:03;;;;;;;5.73;3.80;;;15.20;99.90;;;;;;5090323;28;20207;-48
2022/07/08 00:11:28;;;;;;;6.37;4.00;;;15.10;99.90;;;;;;5088872;28;20610;-54
2022/07/08 00:13:54;;;;;;;8.97;4.10;;;15.20;99.90;;;;;;5089387;28;20423;-54
2022/07/08 00:16:20;;;;;;;6.93;4.00;;;15.10;99.90;;;;;;5088253;28;20658;-49
2022/07/08 00:18:45;;;;;;;7.90;4.57;;;15.10;99.90;;;;;;5081037;28;20196;-53
2022/07/08 00:21:11;;;;;;;7.40;4.30;;;14.90;99.90;;;;;;5089869;28;20192;-53
2022/07/08 00:23:36;;;;;;;7.80;4.50;;;14.80;99.90;;;;;;5090031;28;20665;-50
2022/07/08 00:26:02;;;;;;;7.70;4.87;;;14.80;99.90;;;;;;5089417;28;20181;-52
2022/07/08 00:28:28;;;;;;;6.73;4.23;;;14.80;99.90;;;;;;5089632;28;20189;-48
2022/07/08 00:30:53;;;;;;;12.10;4.60;;;14.70;99.90;;;;;;5088699;28;20185;-50
2022/07/08 00:33:19;;;;;;;5.57;3.73;;;14.70;99.90;;;;;;5089846;28;20186;-53
2022/07/08 00:35:44;;;;;;;7.57;4.10;;;14.70;99.90;;;;;;5086273;28;20252;-53
2022/07/08 00:38:10;;;;;;;8.47;4.20;;;14.70;99.90;;;;;;5089440;28;20192;-50
2022/07/08 00:40:35;;;;;;;7.57;4.10;;;14.70;99.90;;;;;;5089806;28;20688;-48
2022/07/08 00:43:01;;;;;;;5.07;4.30;;;14.70;99.90;;;;;;5087639;28;20180;-54
2022/07/08 00:45:27;;;;;;;9.23;4.03;;;14.70;99.90;;;;;;5089660;28;20338;-54
2022/07/08 00:47:53;;;;;;;6.27;4.13;;;14.80;99.90;;;;;;5089820;28;20298;-54
2022/07/08 00:50:18;;;;;;;8.63;4.70;;;14.80;99.90;;;;;;5089027;28;20419;-51
2022/07/08 00:52:45;;;;;;;5.80;3.83;;;14.80;99.90;;;;;;5077154;28;20189;-54
2022/07/08 00:55:11;;;;;;;7.47;4.00;;;14.80;99.90;;;;;;5069725;28;20652;-50
2022/07/08 00:57:39;;;;;;;6.70;4.23;;;14.80;99.90;;;;;;5089666;28;20489;-47
2022/07/08 01:00:06;;;;;;;11.83;4.67;;;14.80;99.90;;;;;;5089200;28;20265;-50
2022/07/08 01:02:32;;;;;;;6.50;4.50;;;14.80;99.90;;;;;;5086547;28;20549;-47
2022/07/08 01:04:57;;;;;;;7.70;4.10;;;14.80;99.90;;;;;;5089221;28;20936;-48
2022/07/08 01:07:24;;;;;;;6.83;3.97;;;14.90;99.90;;;;;;5089409;28;20501;-52
2022/07/08 01:09:50;;;;;;;7.90;4.30;;;14.90;99.90;;;;;;5089086;28;20189;-49
2022/07/08 01:12:16;;;;;;;7.37;4.30;;;14.80;99.90;;;;;;5089318;28;20414;-52
2022/07/08 01:14:42;;;;;;;6.50;3.87;;;14.80;99.90;;;;;;5088224;28;20439;-53
2022/07/08 01:17:08;;;;;;;6.80;4.50;;;14.80;99.90;;;;;;5088609;28;20423;-52
2022/07/08 01:19:34;;;;;;;8.63;3.90;;;14.80;99.90;;;;;;5088896;28;20469;-51
2022/07/08 01:21:59;;;;;;;7.20;4.10;;;14.80;99.90;;;;;;5088630;28;20677;-52
2022/07/08 01:24:25;;;;;;;6.53;4.20;;;14.80;99.90;;;;;;5089331;28;20673;-52
2022/07/08 01:26:51;;;;;;;5.07;3.70;;;14.80;99.90;;;;;;5087989;28;20193;-50
2022/07/08 01:29:17;;;;;;;8.83;4.70;;;14.80;99.90;;;;;;5088866;28;20177;-50
2022/07/08 01:31:42;;;;;;;5.90;3.90;;;14.70;99.90;;;;;;5070234;28;20434;-50
2022/07/08 01:34:08;;;;;;;6.20;4.00;;;14.80;99.90;;;;;;5089681;28;20169;-49
2022/07/08 01:36:34;;;;;;;7.50;4.20;;;14.80;99.90;;;;;;5093566;28;20181;-49
2022/07/08 01:38:59;;;;;;;12.10;4.60;;;14.90;99.90;;;;;;5094802;28;20217;-50
2022/07/08 01:41:25;;;;;;;7.10;4.20;;;14.90;99.90;;;;;;5088269;28;20181;-51
2022/07/08 01:43:51;;;;;;;11.30;4.67;;;14.80;99.90;;;;;;5070741;28;20213;-53
2022/07/08 01:46:16;;;;;;;7.07;4.47;;;14.70;99.90;;;;;;5088796;28;20181;-54
2022/07/08 01:48:42;;;;;;;7.30;4.67;;;14.50;99.90;;;;;;5089084;28;20187;-47
2022/07/08 01:51:08;;;;;;;8.40;4.30;;;14.50;99.90;;;;;;5088174;28;20189;-52
2022/07/08 01:53:34;;;;;;;9.03;4.50;;;14.40;99.90;;;;;;5097765;28;20926;-52
2022/07/08 01:55:59;;;;;;;8.60;4.90;;;14.30;99.90;;;;;;5089576;28;20443;-51
2022/07/08 01:58:25;;;;;;;10.97;6.43;;;14.20;99.90;;;;;;5087982;28;20246;-54
2022/07/08 02:00:51;;;;;;;10.60;5.00;;;14.20;99.90;;;;;;5091519;28;20691;-53
2022/07/08 02:03:17;;;;;;;8.30;4.70;;;14.10;99.90;;;;;;5092144;28;20185;-53
2022/07/08 02:05:42;;;;;;;9.00;5.27;;;14.10;99.90;;;;;;5091422;28;20180;-49
2022/07/08 02:08:08;;;;;;;11.73;5.37;;;14.10;99.90;;;;;;5091440;28;20905;-53
2022/07/08 02:13:18;;;;;;;9.87;5.20;;;14.00;99.90;;;;;;5100938;28;20654;-55
2022/07/08 02:15:44;;;;;;;7.60;5.00;;;13.90;99.90;;;;;;5091531;28;20765;-48
2022/07/08 02:18:10;;;;;;;6.37;4.77;;;13.90;99.90;;;;;;5092097;28;20871;-51
2022/07/08 02:20:36;;;;;;;6.40;4.93;;;13.90;99.90;;;;;;5092132;28;20415;-50
2022/07/08 02:23:02;;;;;;;14.90;6.20;;;13.90;99.90;;;;;;5090747;28;20193;-51
2022/07/08 02:25:27;;;;;;;8.00;5.80;;;13.90;99.90;;;;;;5091921;28;20619;-53
2022/07/08 02:27:53;;;;;;;8.07;5.83;;;14.00;99.90;;;;;;5091170;28;20671;-51
2022/07/08 02:30:19;;;;;;;9.50;4.70;;;13.90;99.90;;;;;;5092128;28;20191;-52
2022/07/08 02:32:45;;;;;;;8.90;5.47;;;13.90;99.90;;;;;;5072982;28;20923;-51
2022/07/08 02:35:10;;;;;;;6.97;5.00;;;13.90;99.90;;;;;;5099860;28;20449;-52
2022/07/08 02:37:36;;;;;;;8.37;5.00;;;14.00;99.90;;;;;;5102187;28;20238;-53
2022/07/08 02:40:02;;;;;;;11.67;7.43;;;14.00;99.90;;;;;;5090670;28;20263;-51
2022/07/08 02:42:27;;;;;;;10.47;4.80;;;14.00;99.90;;;;;;5091708;28;20188;-52
2022/07/08 02:44:53;;;;;;;9.23;4.67;;;14.00;99.90;;;;;;5091021;28;20605;-50
2022/07/08 02:47:19;;;;;;;9.30;5.40;;;14.00;99.90;;;;;;5091745;28;20179;-56
2022/07/08 02:49:44;;;;;;;9.70;5.53;;;14.00;99.90;;;;;;5091709;28;20189;-50
2022/07/08 02:52:10;;;;;;;10.00;5.40;;;14.10;99.90;;;;;;5090697;28;20189;-51
2022/07/08 02:54:35;;;;;;;9.93;5.40;;;14.10;99.90;;;;;;5091489;28;20181;-52
2022/07/08 02:57:01;;;;;;;8.90;5.20;;;14.10;99.90;;;;;;5091411;28;20201;-49
2022/07/08 02:59:27;;;;;;;11.27;5.00;;;14.20;99.90;;;;;;5089653;28;20259;-48
2022/07/08 03:01:52;;;;;;;12.03;5.13;;;14.20;99.90;;;;;;5090916;28;20619;-52
2022/07/08 03:04:18;;;;;;;12.23;5.20;;;14.30;99.90;;;;;;5091428;28;20204;-54
2022/07/08 03:06:44;;;;;;;11.03;5.70;;;14.30;99.90;;;;;;5090332;28;20651;-53
2022/07/08 03:09:09;;;;;;;11.80;5.43;;;14.30;99.90;;;;;;5091605;28;21053;-49
2022/07/08 03:11:35;;;;;;;9.70;5.20;;;14.30;99.90;;;;;;5090550;28;20737;-51
2022/07/08 03:14:00;;;;;;;14.67;6.73;;;14.40;99.90;;;;;;5090674;28;20276;-53
2022/07/08 03:16:26;;;;;;;8.70;5.63;;;14.40;99.90;;;;;;5091313;28;20177;-51
2022/07/08 03:18:51;;;;;;;10.50;5.80;;;14.30;99.90;;;;;;5072268;28;20197;-53
2022/07/08 03:21:17;;;;;;;7.40;5.33;;;14.20;99.90;;;;;;5091110;28;20256;-47
2022/07/08 03:23:43;;;;;;;11.07;6.80;;;14.20;99.90;;;;;;5089340;28;20212;-52
2022/07/08 03:26:08;;;;;;;8.60;5.37;;;14.20;99.90;;;;;;5072885;28;20572;-47
2022/07/08 03:28:34;;;;;;;10.13;5.43;;;14.20;99.90;;;;;;5090978;28;20251;-51
2022/07/08 03:30:59;;;;;;;11.13;6.83;;;14.20;99.90;;;;;;5090817;28;20177;-51
2022/07/08 03:33:25;;;;;;;12.20;6.30;;;14.10;99.90;;;;;;5090620;28;20185;-52
2022/07/08 03:35:51;;;;;;;11.67;6.60;;;14.00;99.90;;;;;;5090812;28;20189;-53
2022/07/08 03:38:17;;;;;;;8.63;6.70;;;13.90;99.90;;;;;;5092649;28;20185;-52
2022/07/08 03:43:27;;;;;;;12.40;6.70;;;13.90;99.90;;;;;;5090485;28;20414;-52
2022/07/08 03:45:52;;;;;;;12.67;6.63;;;13.80;99.90;;;;;;5090871;28;20784;-52
2022/07/08 03:48:18;;;;;;;11.43;6.30;;;13.80;99.90;;;;;;5090136;28;20530;-49
2022/07/08 03:50:44;;;;;;;10.47;6.80;;;13.80;99.90;;;;;;5087935;28;20181;-47
2022/07/08 03:53:09;;;;;;;22.17;7.60;;;13.80;99.90;;;;;;5090076;28;20645;-49
2022/07/08 03:55:35;;;;;;;11.57;7.30;;;13.80;99.90;;;;;;5089459;28;20189;-50
2022/07/08 03:58:00;;;;;;;11.93;6.53;;;13.90;99.90;;;;;;5090489;28;20525;-50
2022/07/08 04:00:26;;;;;;;9.90;6.70;;;13.80;99.90;;;;;;5089161;28;20232;-50
2022/07/08 04:02:52;;;;;;;14.30;7.10;;;13.90;99.90;;;;;;5089763;28;20509;-48
2022/07/08 04:05:18;;;;;;;10.50;6.70;;;13.90;99.90;;;;;;5088825;28;20254;-49
2022/07/08 04:07:43;;;;;;;11.23;6.77;;;13.90;99.90;;;;;;5090541;28;20209;-49
2022/07/08 04:10:09;;;;;;;10.60;6.97;;;13.90;99.90;;;;;;5089121;28;20494;-50
2022/07/08 04:12:34;;;;;;;10.77;6.87;;;13.90;99.90;;;;;;5089937;28;20627;-51
2022/07/08 04:15:00;;;;;;;11.50;7.00;;;13.90;99.90;;;;;;5088564;28;20224;-51
2022/07/08 04:17:26;;;;;;;16.10;7.37;;;14.00;99.90;;;;;;5088852;28;20185;-48
2022/07/08 04:19:52;;;;;;;12.90;7.57;;;14.00;99.90;;;;;;5089938;28;20507;-49
2022/07/08 04:22:18;;;;;;;13.43;7.23;;;14.00;99.90;;;;;;5089029;28;20992;-50
2022/07/08 04:24:44;;;;;;;12.27;6.93;;;14.00;99.90;;;;;;5071668;28;20201;-50
2022/07/08 04:27:10;;;;;;;12.80;7.50;;;14.00;99.90;;;;;;5089157;28;20209;-48
2022/07/08 04:29:35;;;;;;;13.30;7.63;;;14.10;99.90;;;;;;5088869;28;20181;-47
2022/07/08 04:32:01;;;;;;;11.07;6.77;;;14.10;99.90;;;;;;5088061;28;20197;-48
2022/07/08 04:34:26;;;;;;;18.87;6.40;;;14.10;99.90;;;;;;5089790;28;20189;-49
2022/07/08 04:36:52;;;;;;;10.17;6.40;;;14.10;99.90;;;;;;5088832;28;20196;-48
2022/07/08 04:39:18;;;;;;;17.77;7.70;;;14.10;99.90;;;;;;5089860;28;20917;-47
2022/07/08 04:41:43;;;;;;;10.00;7.33;;;14.10;99.90;;;;;;5089362;28;20216;-49
2022/07/08 04:44:09;;;;;;;11.20;6.30;;;14.20;99.90;;;;;;5088994;28;20671;-49
2022/07/08 04:46:35;;;;;;;12.47;7.40;;;14.20;99.90;;;;;;5089578;28;20173;-54
2022/07/08 04:49:00;;;;;;;10.27;6.60;;;14.20;99.90;;;;;;5088803;28;20453;-50
2022/07/08 04:51:26;;;;;;;16.57;7.03;;;14.20;99.90;;;;;;5089396;28;20177;-51
2022/07/08 04:53:51;;;;;;;8.63;6.77;;;14.20;99.90;;;;;;5088104;28;20185;-53
2022/07/08 04:56:17;;;;;;;15.23;7.53;;;14.30;99.90;;;;;;5079351;28;20190;-49
2022/07/08 04:58:43;;;;;;;13.07;6.90;;;14.30;99.90;;;;;;5086129;28;20239;-52
2022/07/08 05:01:08;;;;;;;14.10;7.20;;;14.30;99.90;;;;;;5088263;28;20281;-50
2022/07/08 05:03:34;;;;;;;12.07;6.53;;;14.30;99.90;;;;;;5088996;28;20244;-47
2022/07/08 05:06:00;;;;;;;12.57;6.30;;;14.40;99.90;;;;;;5089032;28;20202;-50
2022/07/08 05:08:25;;;;;;;14.30;8.03;;;14.40;99.90;;;;;;5088524;28;20260;-51
2022/07/08 05:10:51;;;;;;;12.60;7.03;;;14.50;99.90;;;;;;5089347;28;20411;-51
2022/07/08 05:13:16;;;;;;;9.80;6.40;;;14.60;99.90;;;;;;5104605;28;20193;-53
2022/07/08 05:15:42;;;;;;;18.83;6.73;;;14.70;99.90;;;;;;5088591;28;20185;-48
2022/07/08 05:18:08;;;;;;;18.90;7.47;;;14.70;99.90;;;;;;5089316;28;20183;-53
2022/07/08 05:20:33;;;;;;;10.77;6.57;;;14.70;99.90;;;;;;5088214;28;20271;-47
2022/07/08 05:22:59;;;;;;;14.80;8.67;;;14.80;99.90;;;;;;5089483;28;20181;-48
2022/07/08 05:25:25;;;;;;;15.10;7.23;;;14.90;99.90;;;;;;5070064;28;20323;-49
2022/07/08 05:27:50;;;;;;;12.80;6.70;;;14.90;99.90;;;;;;5089756;28;20193;-50
2022/07/08 05:30:16;;;;;;;14.40;7.10;;;15.00;99.90;;;;;;5091669;28;20180;-51
2022/07/08 05:32:42;;;;;;;19.07;8.40;;;15.00;99.90;;;;;;5092968;28;20576;-51
2022/07/08 05:35:09;;;;;;;14.13;7.87;;;15.00;99.90;;;;;;5091864;28;20214;-49
2022/07/08 05:37:37;;;;;;;13.20;7.13;;;15.10;99.90;;;;;;5093221;28;20191;-50
2022/07/08 05:40:10;;;;;;;17.20;8.50;;;15.10;99.90;;;;;;5072771;28;20446;-50
2022/07/08 05:42:37;;;;;;;16.57;7.90;;;15.10;99.90;;;;;;5071259;28;20426;-53
2022/07/08 05:45:03;;;;;;;17.60;8.53;;;15.20;99.90;;;;;;5089971;28;20910;-50
2022/07/08 05:47:29;;;;;;;15.47;7.10;;;15.20;99.90;;;;;;5091443;28;20448;-54
2022/07/08 05:49:55;;;;;;;11.47;7.00;;;15.20;99.90;;;;;;5090991;28;20442;-54
2022/07/08 05:52:20;;;;;;;15.13;7.90;;;15.10;99.90;;;;;;5091817;28;20280;-52
2022/07/08 05:54:46;;;;;;;17.63;7.73;;;15.20;99.90;;;;;;5072536;28;20244;-49
2022/07/08 05:57:13;;;;;;;19.60;8.03;;;15.20;99.90;;;;;;5091454;28;20185;-51
2022/07/08 05:59:38;;;;;;;13.60;7.53;;;15.20;99.90;;;;;;5091095;28;20836;-49
2022/07/08 06:02:04;;;;;;;16.33;7.60;;;15.20;99.90;;;;;;5090084;28;20558;-52
2022/07/08 06:04:30;;;;;;;17.40;7.80;;;15.10;99.90;;;;;;5091451;28;20204;-52
2022/07/08 06:06:56;;;;;;;13.77;7.33;;;15.20;99.90;;;;;;5090461;28;20200;-50
2022/07/08 06:09:26;;;;;;;12.40;7.27;;;15.20;99.90;;;;;;5091213;28;20674;-52
2022/07/08 06:11:51;;;;;;;12.43;8.00;;;15.30;99.90;;;;;;5089923;28;20451;-53
2022/07/08 06:14:18;;;;;;;16.37;8.50;;;15.30;99.90;;;;;;5091117;28;20460;-53
2022/07/08 06:16:43;;;;;;;13.87;8.10;;;15.30;99.90;;;;;;5090449;28;20188;-49
2022/07/08 06:19:09;;;;;;;17.90;7.87;;;15.40;99.90;;;;;;5091505;28;20434;-55
2022/07/08 06:21:35;;;;;;;14.23;8.67;;;15.30;99.90;;;;;;5089830;28;20441;-51
2022/07/08 06:24:01;;;;;;;10.30;7.00;;;15.40;99.90;;;;;;5091124;28;20301;-49
2022/07/08 06:26:27;;;;;;;14.93;7.00;;;15.40;99.90;;;;;;5090813;28;20185;-50
2022/07/08 06:28:52;;;;;;;16.27;8.00;;;15.50;99.90;;;;;;5090764;28;20192;-50
2022/07/08 06:31:18;;;;;;;17.50;8.30;;;15.50;99.90;;;;;;5090793;28;20422;-54
2022/07/08 06:33:44;;;;;;;17.37;7.50;;;15.60;99.90;;;;;;5086985;28;20185;-49
2022/07/08 06:36:09;;;;;;;18.30;7.73;;;15.60;99.90;;;;;;5087146;28;20194;-52
2022/07/08 06:38:35;;;;;;;14.33;7.50;;;15.60;99.90;;;;;;5089639;28;20195;-54
2022/07/08 06:41:01;;;;;;;16.63;7.63;;;15.70;99.90;;;;;;5090581;28;20185;-52
2022/07/08 06:43:26;;;;;;;18.13;8.20;;;15.80;99.90;;;;;;5088704;28;20203;-54
2022/07/08 06:45:52;;;;;;;15.53;7.23;;;15.80;99.90;;;;;;5091086;28;20188;-52
2022/07/08 06:48:17;;;;;;;17.63;7.00;;;15.80;99.90;;;;;;5090420;28;20266;-49
2022/07/08 06:50:43;;;;;;;13.47;7.47;;;15.90;99.90;;;;;;5090678;28;20199;-49
2022/07/08 06:53:08;;;;;;;11.90;6.77;;;15.90;99.90;;;;;;5090060;28;20245;-52
2022/07/08 06:55:34;;;;;;;13.20;6.80;;;15.90;99.90;;;;;;5090423;28;20193;-51
2022/07/08 06:58:00;;;;;;;17.57;8.83;;;15.90;99.90;;;;;;5088027;28;20222;-48
2022/07/08 07:00:25;;;;;;;14.37;7.00;;;16.00;99.90;;;;;;5089655;28;20233;-52
2022/07/08 07:02:51;;;;;;;13.83;7.40;;;16.00;99.90;;;;;;5089934;28;20194;-50
2022/07/08 07:05:19;;;;;;;15.20;7.77;;;16.10;99.90;;;;;;5088513;28;20287;-52
2022/07/08 07:07:45;;;;;;;18.27;7.33;;;16.20;99.90;;;;;;5089608;28;20174;-52
2022/07/08 07:10:11;;;;;;;9.73;6.37;;;16.10;99.90;;;;;;5072210;28;20701;-50
2022/07/08 07:12:37;;;;;;;11.20;7.40;;;16.10;99.90;;;;;;5089200;28;20523;-49
2022/07/08 07:15:02;;;;;;;15.37;7.37;;;16.10;99.90;;;;;;5090423;28;20186;-47
2022/07/08 07:17:28;;;;;;;15.30;7.03;;;16.10;99.90;;;;;;5087524;28;20576;-49
2022/07/08 07:19:54;;;;;;;9.17;6.90;;;16.10;99.90;;;;;;5090419;28;20185;-52
2022/07/08 07:22:20;;;;;;;11.50;7.33;;;16.00;99.90;;;;;;5089079;28;21044;-53
2022/07/08 07:24:46;;;;;;;14.03;7.13;;;16.00;99.90;;;;;;5090425;28;20492;-52
2022/07/08 07:27:11;;;;;;;15.37;6.90;;;16.00;99.90;;;;;;5088653;28;20190;-52
2022/07/08 07:29:37;;;;;;;11.40;6.70;;;16.10;99.90;;;;;;5090203;28;20184;-50
2022/07/08 07:32:03;;;;;;;14.20;6.60;;;16.20;99.90;;;;;;5089216;28;20186;-50
2022/07/08 07:34:28;;;;;;;12.77;7.17;;;16.20;99.90;;;;;;5090055;28;20193;-50
2022/07/08 07:36:54;;;;;;;10.80;6.70;;;16.20;99.90;;;;;;5088777;28;20890;-50
2022/07/08 07:39:20;;;;;;;13.60;7.20;;;16.20;99.90;;;;;;5089992;28;20189;-50
2022/07/08 07:41:45;;;;;;;10.47;6.53;;;16.20;99.90;;;;;;5089115;28;20970;-49
2022/07/08 07:44:11;;;;;;;13.63;7.53;;;16.20;99.90;;;;;;5088860;28;20226;-52
2022/07/08 07:46:37;;;;;;;9.10;6.80;;;16.10;99.90;;;;;;5089715;28;20166;-51
2022/07/08 07:49:04;;;;;;;14.70;6.77;;;16.20;99.90;;;;;;5089259;28;20170;-51
2022/07/08 07:51:29;;;;;;;9.70;6.50;;;16.10;99.90;;;;;;5090880;28;20650;-51
2022/07/08 07:53:56;;;;;;;8.70;6.57;;;16.10;99.90;;;;;;5094292;28;20497;-48
2022/07/08 07:56:23;;;;;;;11.87;7.13;;;16.10;99.90;;;;;;5087653;28;20208;-52
2022/07/08 07:58:49;;;;;;;13.37;6.87;;;16.10;99.90;;;;;;5089594;28;20427;-50
2022/07/08 08:01:14;;;;;;;14.47;7.30;;;16.10;99.90;;;;;;5087930;28;20545;-51
2022/07/08 08:03:40;;;;;;;10.43;5.83;;;16.10;99.90;;;;;;5089388;28;20976;-48
2022/07/08 08:06:07;;;;;;;8.33;6.10;;;16.20;99.90;;;;;;5083567;28;20194;-53
2022/07/08 08:08:33;;;;;;;13.00;6.37;;;16.30;99.90;;;;;;5070841;28;20506;-51
2022/07/08 08:11:00;;;;;;;9.63;7.30;;;16.40;99.90;;;;;;5088576;28;20455;-54
2022/07/08 08:13:26;;;;;;;13.93;6.63;;;16.50;99.90;;;;;;5089506;28;20416;-52
2022/07/08 08:15:51;;;;;;;10.90;6.70;;;16.50;99.90;;;;;;5088873;28;20436;-51
2022/07/08 08:18:17;;;;;;;8.03;6.10;;;16.50;99.90;;;;;;5089177;28;20184;-49
2022/07/08 08:20:43;;;;;;;9.80;5.90;;;16.60;99.90;;;;;;5070123;28;20182;-50
2022/07/08 08:23:09;;;;;;;6.70;5.70;;;16.60;99.90;;;;;;5088953;28;20789;-49
2022/07/08 08:25:35;;;;;;;10.37;6.00;;;16.70;99.90;;;;;;5088271;28;20214;-51
2022/07/08 08:28:01;;;;;;;10.10;5.30;;;16.80;99.90;;;;;;5089326;28;20429;-52
2022/07/08 08:30:27;;;;;;;8.73;5.10;;;17.00;99.90;;;;;;5069678;28;20418;-52
2022/07/08 08:32:52;;;;;;;7.63;5.00;;;17.10;99.90;;;;;;5088089;28;20228;-49
2022/07/08 08:35:18;;;;;;;7.57;5.20;;;17.10;99.90;;;;;;5089158;28;20175;-48
2022/07/08 08:37:44;;;;;;;9.73;4.77;;;17.20;99.90;;;;;;5088089;28;20185;-53
2022/07/08 08:40:11;;;;;;;11.07;4.90;;;17.30;99.90;;;;;;5088524;28;20491;-46
2022/07/08 08:42:37;;;;;;;7.20;5.00;;;17.30;99.90;;;;;;5088775;28;20533;-50
2022/07/08 08:45:04;;;;;;;8.57;5.60;;;17.40;99.90;;;;;;5088400;28;20457;-52
2022/07/08 08:47:31;;;;;;;9.50;5.33;;;17.50;99.90;;;;;;5089092;28;20389;-52
2022/07/08 08:50:53;;;;;;;10.27;5.50;;;17.60;99.90;;;;;;5089965;28;20481;-51
2022/07/08 08:52:49;;;;;;;8.67;5.03;;;17.80;99.90;;;;;;5095058;28;20414;-50
2022/07/08 08:55:26;;;;;;;10.10;4.60;;;17.80;99.90;;;;;;5100650;28;20442;-49
2022/07/08 08:57:57;;;;;;;6.10;5.07;;;17.80;99.90;;;;;;5088286;28;20419;-49
2022/07/08 09:00:23;;;;;;;8.10;5.00;;;17.80;99.90;;;;;;5088547;28;20467;-52
2022/07/08 09:02:49;;;;;;;8.60;4.67;;;17.90;99.90;;;;;;5087941;28;20425;-50
2022/07/08 09:05:15;;;;;;;6.90;4.90;;;18.10;99.90;;;;;;5087857;28;20847;-51
2022/07/08 09:07:41;;;;;;;6.03;4.60;;;18.30;99.90;;;;;;5088943;28;20299;-52
2022/07/08 09:10:07;;;;;;;8.03;4.90;;;18.70;99.90;;;;;;5092779;28;20418;-49
2022/07/08 09:12:33;;;;;;;7.33;4.90;;;19.00;99.90;;;;;;5079943;28;20423;-47
2022/07/08 09:15:00;;;;;;;9.20;5.60;;;19.20;99.90;;;;;;5084978;28;20526;-49
2022/07/08 09:17:26;;;;;;;6.63;5.03;;;19.20;99.90;;;;;;5087049;28;20189;-52
2022/07/08 09:19:52;;;;;;;6.10;4.70;;;19.10;99.90;;;;;;5087146;28;20458;-51
2022/07/08 09:22:22;;;;;;;10.97;5.53;;;18.90;99.90;;;;;;5088446;28;20502;-48
2022/07/08 09:24:48;;;;;;;6.07;5.40;;;18.70;99.90;;;;;;5087470;28;20201;-50
2022/07/08 09:27:13;;;;;;;8.40;6.03;;;18.60;99.90;;;;;;5087240;28;20417;-48
2022/07/08 09:29:55;;;;;;;7.50;5.83;;;18.60;99.90;;;;;;5087195;28;20197;-51
2022/07/08 09:32:21;;;;;;;7.10;4.90;;;18.60;99.90;;;;;;5087804;28;20188;-48
2022/07/08 09:34:46;;;;;;;6.10;4.73;;;18.60;99.90;;;;;;5087268;28;20749;-52
2022/07/08 09:37:17;;;;;;;8.23;5.90;;;18.70;99.90;;;;;;5088120;28;20921;-48
2022/07/08 09:39:46;;;;;;;4.97;4.23;;;18.60;99.90;;;;;;5079617;28;20268;-50
2022/07/08 09:42:14;;;;;;;8.67;5.40;;;18.70;99.90;;;;;;5088297;28;20476;-51
2022/07/08 09:44:40;;;;;;;6.10;5.03;;;18.90;99.90;;;;;;5087608;28;20454;-51
2022/07/08 09:47:13;;;;;;;8.50;4.60;;;19.10;99.90;;;;;;5088382;28;20874;-52
2022/07/08 09:49:41;;;;;;;11.27;5.70;;;19.60;99.90;;;;;;5087695;28;20476;-50
2022/07/08 09:52:08;;;;;;;4.77;4.37;;;20.00;99.90;;;;;;5092778;28;20485;-50
2022/07/08 09:54:33;;;;;;;7.60;5.83;;;20.50;99.90;;;;;;5093119;28;20432;-49
2022/07/08 09:57:07;;;;;;;8.23;5.53;;;20.90;99.90;;;;;;5087897;28;20423;-49
2022/07/08 09:59:34;;;;;;;5.97;5.47;;;21.00;99.90;;;;;;5086018;28;20226;-51
2022/07/08 10:02:00;;;;;;;9.13;5.60;;;21.00;99.90;;;;;;5086873;28;20418;-49
2022/07/08 10:04:26;;;;;;;7.10;5.73;;;20.50;99.70;;;;;;5068870;28;20517;-52
2022/07/08 10:06:53;;;;;;;8.53;6.00;;;19.90;99.90;;;;;;5087700;28;20418;-52
2022/07/08 10:09:20;;;;;;;7.17;5.63;;;19.90;99.90;;;;;;5086980;28;20637;-50
2022/07/08 10:11:47;;;;;;;6.20;5.47;;;19.80;99.90;;;;;;5087042;28;20474;-52
2022/07/08 10:14:13;;;;;;;5.70;5.20;;;19.60;99.90;;;;;;5086522;28;20433;-49
2022/07/08 10:16:40;;;;;;;8.10;5.70;;;19.40;99.90;;;;;;5089486;28;20518;-47
2022/07/08 10:19:11;;;;;;;9.00;5.70;;;19.50;99.90;;;;;;5072610;28;20434;-51
2022/07/08 10:21:39;;;;;;;6.90;5.47;;;19.70;99.90;;;;;;5089616;28;20443;-53
2022/07/08 10:24:12;;;;;;;6.43;5.30;;;19.70;99.90;;;;;;5091394;28;20463;-51
2022/07/08 10:26:42;;;;;;;6.77;5.33;;;20.00;99.90;;;;;;5090011;28;20523;-51
2022/07/08 10:29:10;;;;;;;9.37;6.27;;;20.70;99.90;;;;;;5090698;28;20910;-49
2022/07/08 10:31:51;;;;;;;8.90;5.60;;;21.40;98.70;;;;;;5089292;28;20514;-50
2022/07/08 10:34:18;;;;;;;7.10;5.97;;;21.80;96.40;;;;;;5090891;28;20466;-51
2022/07/08 10:36:53;;;;;;;6.47;5.50;;;21.90;93.70;;;;;;5083913;28;20430;-46
2022/07/08 10:39:41;;;;;;;6.30;5.70;;;21.80;94.00;;;;;;5085045;28;20425;-52
2022/07/08 10:42:08;;;;;;;8.07;5.30;;;21.50;93.50;;;;;;5089993;28;20452;-52
2022/07/08 10:44:43;;;;;;;5.80;5.17;;;21.10;93.10;;;;;;5090425;28;20467;-50
2022/07/08 10:47:14;;;;;;;6.20;5.20;;;21.00;92.40;;;;;;5090566;28;20478;-53
2022/07/08 10:49:41;;;;;;;5.97;5.43;;;20.80;93.00;;;;;;5072264;28;20958;-49
2022/07/08 10:52:06;;;;;;;5.90;5.40;;;20.60;94.20;;;;;;5071823;28;20834;-49
2022/07/08 10:54:42;;;;;;;6.93;5.57;;;20.50;93.80;;;;;;5099902;28;20443;-50
2022/07/08 10:57:24;;;;;;;6.13;5.30;;;20.40;93.80;;;;;;5089558;28;20481;-48
2022/07/08 11:00:19;;;;;;;4.93;4.53;;;20.50;94.10;;;;;;5090480;28;20475;-48
2022/07/08 11:02:48;;;;;;;6.03;5.00;;;20.50;94.80;;;;;;5062269;28;20440;-53
2022/07/08 11:05:36;;;;;;;6.83;5.50;;;20.50;95.40;;;;;;5089772;28;20973;-51
2022/07/08 11:08:21;;;;;;;5.50;5.00;;;20.40;95.20;;;;;;5087962;28;20431;-53
2022/07/08 11:10:48;;;;;;;7.60;5.70;;;20.30;95.80;;;;;;5079816;28;20475;-53
2022/07/08 11:13:14;;;;;;;6.07;5.57;;;20.10;96.60;;;;;;5085239;28;20427;-54
2022/07/08 11:15:39;;;;;;;6.37;5.60;;;20.10;96.80;;;;;;5088671;28;20477;-53
2022/07/08 11:18:06;;;;;;;6.10;5.60;;;20.20;96.60;;;;;;5088838;28;20817;-49
2022/07/08 11:20:32;;;;;;;6.20;5.60;;;20.30;95.00;;;;;;5088264;28;20177;-50
2022/07/08 11:23:03;;;;;;;8.17;5.07;;;20.30;94.00;;;;;;5088405;28;20426;-51
2022/07/08 11:25:30;;;;;;;7.03;6.00;;;20.30;94.20;;;;;;5088200;28;20451;-48
2022/07/08 11:27:55;;;;;;;6.03;5.47;;;20.10;94.60;;;;;;5088414;28;20937;-49
2022/07/08 11:30:21;;;;;;;6.30;5.77;;;19.70;95.30;;;;;;5088578;28;20415;-47
2022/07/08 11:32:51;;;;;;;6.17;5.60;;;19.30;95.60;;;;;;5088216;28;20173;-50
2022/07/08 11:35:20;;;;;;;10.00;6.20;;;19.30;98.10;;;;;;5087987;28;20185;-52
2022/07/08 11:37:46;;;;;;;9.60;5.60;;;19.20;97.10;;;;;;5069400;28;20426;-51
2022/07/08 11:40:15;;;;;;;5.60;5.10;;;19.10;96.70;;;;;;5088167;28;20415;-48
2022/07/08 11:42:42;;;;;;;8.37;5.60;;;19.00;96.50;;;;;;5086456;28;20187;-50
2022/07/08 11:45:10;;;;;;;6.07;5.50;;;19.00;97.20;;;;;;5087806;28;20458;-52
2022/07/08 11:47:36;;;;;;;5.97;5.30;;;19.10;97.60;;;;;;5088103;28;20402;-52
2022/07/08 11:50:02;;;;;;;5.70;5.20;;;19.20;96.70;;;;;;5088276;28;20408;-50
2022/07/08 11:52:28;;;;;;;5.40;4.90;;;19.20;97.30;;;;;;5088171;28;20193;-50
2022/07/08 11:54:54;;;;;;;5.00;4.60;;;19.30;96.80;;;;;;5089686;28;20418;-49
2022/07/08 11:57:20;;;;;;;5.33;4.93;;;19.30;95.90;;;;;;5088245;28;20415;-49
2022/07/08 11:59:48;;;;;;;5.77;5.27;;;19.30;96.50;;;;;;5089531;28;20864;-52
2022/07/08 12:02:20;;;;;;;7.20;6.00;;;19.20;96.90;;;;;;5088757;28;20443;-49
2022/07/08 12:04:50;;;;;;;6.37;5.87;;;19.20;96.70;;;;;;5088984;28;20454;-49
2022/07/08 12:07:26;;;;;;;7.17;6.53;;;19.10;96.80;;;;;;5095409;28;20420;-51
2022/07/08 12:09:59;;;;;;;7.60;6.10;;;18.90;96.80;;;;;;5102961;28;20470;-51
2022/07/08 12:12:27;;;;;;;6.73;6.13;;;18.80;98.20;;;;;;5092223;28;20418;-48
2022/07/08 12:14:54;;;;;;;7.00;6.27;;;18.80;97.90;;;;;;5077046;28;20426;-46
2022/07/08 12:17:27;;;;;;;7.73;6.30;;;18.70;98.00;;;;;;5103127;28;20528;-48
2022/07/08 12:19:56;;;;;;;7.23;6.47;;;18.70;98.30;;;;;;5091050;28;20435;-51
2022/07/08 12:22:43;;;;;;;6.87;6.20;;;18.70;98.90;;;;;;5090276;28;20423;-49
2022/07/08 12:25:09;;;;;;;7.87;6.60;;;18.70;99.00;;;;;;5103108;28;20561;-50
2022/07/08 12:27:35;;;;;;;6.73;6.23;;;18.90;99.30;;;;;;5101511;28;21086;-50
2022/07/08 12:30:05;;;;;;;13.80;6.60;;;18.90;99.10;;;;;;5092477;28;20209;-46
2022/07/08 12:32:42;;;;;;;7.50;6.73;;;19.00;98.70;;;;;;5088918;28;21114;-49
2022/07/08 12:35:10;;;;;;;8.97;6.30;;;19.10;98.30;;;;;;5102949;28;20410;-50
2022/07/08 12:37:37;;;;;;;7.40;6.70;;;18.80;97.00;;;;;;5099603;28;20487;-50
2022/07/08 12:40:14;;;;;;;7.27;6.63;;;18.60;97.70;;;;;;5090195;28;20422;-50
2022/07/08 12:42:40;;;;;;;7.30;6.70;;;18.60;98.50;;;;;;5101732;28;20420;-52
2022/07/08 12:45:16;;;;;;;7.83;7.23;;;18.70;98.50;;;;;;5087919;28;20995;-53
2022/07/08 12:47:46;;;;;;;8.70;7.70;;;18.70;98.10;;;;;;5088504;28;20988;-53